Time;durP1;ratioP1;P1;durP2;ratioP2;P2;SDS_P1;SDS_P2;PMS_P1;PMS_P2;Temp;Humidity;BMP_temperature;BMP_pressure;BME280_temperature;BME280_humidity;BME280_pressure;Samples;Min_cycle;Max_cycle;Signal;HPM_P1;HPM_P2
2024/03/16 00:00:21;;;;;;;;;;;;;;;18.49;46.57;99143.91;10326208;28;844;-77
2024/03/16 00:05:16;;;;;;;;;;;;;;;18.48;46.60;99141.38;10326536;28;803;-77
2024/03/16 00:10:12;;;;;;;;;;;;;;;18.46;46.54;99145.88;10325865;28;1175;-77
2024/03/16 00:15:09;;;;;;;;;;;;;;;18.43;46.85;99138.97;10325681;28;1922;-77
2024/03/16 00:20:10;;;;;;;;;;;;;;;18.41;46.52;99140.84;10325668;28;857;-76
2024/03/16 00:25:06;;;;;;;;;;;;;;;18.40;46.62;99141.78;10325424;28;877;-77
2024/03/16 00:30:06;;;;;;;;;;;;;;;18.39;46.81;99142.69;10326147;28;1127;-77
2024/03/16 00:35:03;;;;;;;;;;;;;;;18.36;46.68;99134.97;10325173;28;1914;-77
2024/03/16 00:39:59;;;;;;;;;;;;;;;18.35;46.68;99147.31;10337482;28;870;-77
2024/03/16 00:44:55;;;;;;;;;;;;;;;18.34;46.62;99144.78;10339613;28;914;-77
2024/03/16 00:49:50;;;;;;;;;;;;;;;18.32;46.79;99130.81;10338603;28;874;-77
2024/03/16 00:54:46;;;;;;;;;;;;;;;18.30;46.89;99132.69;10338355;28;1901;-76
2024/03/16 00:59:42;;;;;;;;;;;;;;;18.28;46.66;99139.81;10338958;28;810;-77
2024/03/16 01:04:38;;;;;;;;;;;;;;;18.26;46.67;99136.41;10338310;28;830;-77
2024/03/16 01:09:34;;;;;;;;;;;;;;;18.24;46.72;99141.78;10338853;28;873;-76
2024/03/16 01:14:30;;;;;;;;;;;;;;;18.23;46.68;99152.41;10338046;28;1894;-77
2024/03/16 01:19:26;;;;;;;;;;;;;;;18.22;46.71;99145.44;10338053;28;758;-77
2024/03/16 01:24:21;;;;;;;;;;;;;;;18.18;46.75;99153.53;10338226;28;917;-77
2024/03/16 01:29:17;;;;;;;;;;;;;;;18.17;46.86;99149.16;10338275;28;1212;-76
2024/03/16 01:34:13;;;;;;;;;;;;;;;18.15;46.87;99144.91;10337728;28;1977;-77
2024/03/16 01:39:13;;;;;;;;;;;;;;;18.14;46.76;99140.56;10337678;28;822;-77
2024/03/16 01:44:09;;;;;;;;;;;;;;;18.14;46.75;99148.50;10337751;28;870;-77
2024/03/16 01:49:04;;;;;;;;;;;;;;;18.10;46.80;99147.81;10334055;28;931;-76
2024/03/16 01:54:01;;;;;;;;;;;;;;;18.10;46.72;99146.94;10330970;28;1901;-77
2024/03/16 01:58:56;;;;;;;;;;;;;;;18.08;46.73;99149.69;10330794;28;891;-77
2024/03/16 02:03:57;;;;;;;;;;;;;;;18.08;46.39;99154.09;10331214;28;842;-75
2024/03/16 02:08:53;;;;;;;;;;;;;;;18.05;46.67;99157.75;10330361;28;858;-76
2024/03/16 02:13:49;;;;;;;;;;;;;;;18.04;46.87;99163.94;10329510;28;1898;-76
2024/03/16 02:18:45;;;;;;;;;;;;;;;18.03;46.94;99161.41;10330057;28;859;-77
2024/03/16 02:23:41;;;;;;;;;;;;;;;18.01;46.94;99155.38;10330076;28;990;-77
2024/03/16 02:28:37;;;;;;;;;;;;;;;18.00;46.85;99158.91;10329560;28;1173;-77
2024/03/16 02:33:33;;;;;;;;;;;;;;;17.99;46.69;99165.97;10330603;28;1913;-77
2024/03/16 02:38:29;;;;;;;;;;;;;;;17.96;46.79;99159.09;10329318;28;786;-77
2024/03/16 02:43:25;;;;;;;;;;;;;;;17.95;46.69;99173.22;10329756;28;862;-77
2024/03/16 02:48:21;;;;;;;;;;;;;;;17.94;46.89;99163.56;10329519;28;1046;-77
2024/03/16 02:53:18;;;;;;;;;;;;;;;17.92;46.87;99154.91;10328580;28;864;-77
2024/03/16 02:58:13;;;;;;;;;;;;;;;17.92;46.80;99162.84;10328468;28;853;-76
2024/03/16 03:03:11;;;;;;;;;;;;;;;17.90;46.96;99164.69;10327123;28;763;-77
2024/03/16 03:08:07;;;;;;;;;;;;;;;17.89;46.77;99170.03;10327959;28;938;-77
2024/03/16 03:13:03;;;;;;;;;;;;;;;17.88;46.87;99181.53;10327884;28;926;-77
2024/03/16 03:17:59;;;;;;;;;;;;;;;17.87;46.87;99185.09;10328117;28;1894;-77
2024/03/16 03:22:56;;;;;;;;;;;;;;;17.85;46.94;99194.88;10327342;28;893;-77
2024/03/16 03:27:51;;;;;;;;;;;;;;;17.84;47.01;99201.06;10327245;28;917;-76
2024/03/16 03:32:47;;;;;;;;;;;;;;;17.83;46.99;99204.63;10327848;28;1174;-77
2024/03/16 03:37:43;;;;;;;;;;;;;;;17.82;46.78;99205.59;10326709;28;1963;-77
2024/03/16 03:42:45;;;;;;;;;;;;;;;17.80;46.85;99200.38;10326100;28;1397;-77
2024/03/16 03:48:00;;;;;;;;;;;;;;;17.79;47.04;99206.59;10326589;28;747;-77
2024/03/16 03:52:58;;;;;;;;;;;;;;;17.79;47.07;99208.31;10326844;28;950;-77
2024/03/16 03:57:54;;;;;;;;;;;;;;;17.77;46.72;99211.06;10325507;28;1967;-77
2024/03/16 04:02:50;;;;;;;;;;;;;;;17.75;46.96;99208.47;10326085;28;1044;-77
2024/03/16 04:07:46;;;;;;;;;;;;;;;17.74;46.75;99211.22;10325945;28;789;-77
2024/03/16 04:12:42;;;;;;;;;;;;;;;17.73;46.94;99222.66;10326654;28;839;-77
2024/03/16 04:17:38;;;;;;;;;;;;;;;17.72;46.98;99228.88;10325656;28;1959;-76
2024/03/16 04:22:34;;;;;;;;;;;;;;;17.70;46.85;99231.59;10325548;28;921;-77
2024/03/16 04:27:30;;;;;;;;;;;;;;;17.69;47.06;99232.53;10325475;28;838;-77
2024/03/16 04:32:30;;;;;;;;;;;;;;;17.68;47.03;99235.22;10325174;28;1381;-77
2024/03/16 04:37:26;;;;;;;;;;;;;;;17.67;46.96;99233.53;10325241;28;1972;-77
2024/03/16 04:42:22;;;;;;;;;;;;;;;17.65;46.90;99228.34;10324805;28;1017;-77
2024/03/16 04:47:18;;;;;;;;;;;;;;;17.65;46.85;99241.50;10325710;28;926;-77
2024/03/16 04:52:15;;;;;;;;;;;;;;;17.63;46.98;99235.50;10324995;28;1676;-77
2024/03/16 04:57:12;;;;;;;;;;;;;;;17.63;47.19;99231.97;10324748;28;1897;-77
2024/03/16 05:02:08;;;;;;;;;;;;;;;17.62;46.97;99246.94;10324773;28;891;-77
2024/03/16 05:07:04;;;;;;;;;;;;;;;17.64;46.95;99247.72;10325354;28;897;-77
2024/03/16 05:12:00;;;;;;;;;;;;;;;17.63;46.93;99246.03;10325189;28;981;-77
2024/03/16 05:16:56;;;;;;;;;;;;;;;17.64;46.79;99260.06;10325027;28;1906;-81
2024/03/16 05:21:52;;;;;;;;;;;;;;;17.66;46.94;99259.06;10324426;28;810;-77
2024/03/16 05:26:48;;;;;;;;;;;;;;;17.69;47.09;99263.31;10330736;28;822;-77
2024/03/16 05:31:44;;;;;;;;;;;;;;;17.69;46.98;99266.78;10332501;28;1264;-76
2024/03/16 05:36:40;;;;;;;;;;;;;;;17.71;47.01;99278.13;10331547;28;1971;-76
2024/03/16 05:41:36;;;;;;;;;;;;;;;17.76;47.04;99291.03;10332481;28;877;-76
2024/03/16 05:46:32;;;;;;;;;;;;;;;17.78;47.01;99293.63;10331277;28;985;-75
2024/03/16 05:51:28;;;;;;;;;;;;;;;17.80;47.23;99289.16;10331756;28;802;-75
2024/03/16 05:56:24;;;;;;;;;;;;;;;17.82;47.04;99301.34;10330999;28;1950;-75
2024/03/16 06:01:20;;;;;;;;;;;;;;;17.84;47.02;99311.78;10331347;28;889;-76
2024/03/16 06:06:16;;;;;;;;;;;;;;;17.87;47.22;99324.84;10331181;28;925;-73
2024/03/16 06:11:12;;;;;;;;;;;;;;;17.88;47.25;99327.38;10330410;28;783;-72
2024/03/16 06:16:08;;;;;;;;;;;;;;;17.89;47.24;99333.50;10330434;28;1963;-72
2024/03/16 06:21:04;;;;;;;;;;;;;;;17.88;47.21;99353.75;10330627;28;866;-72
2024/03/16 06:26:06;;;;;;;;;;;;;;;17.91;47.23;99360.66;10330218;28;934;-72
2024/03/16 06:31:08;;;;;;;;;;;;;;;17.91;46.90;99356.22;10330250;28;1890;-73
2024/03/16 06:36:03;;;;;;;;;;;;;;;17.93;47.08;99361.44;10329690;28;1918;-72
2024/03/16 06:40:59;;;;;;;;;;;;;;;17.94;46.96;99369.25;10329847;28;951;-72
2024/03/16 06:45:56;;;;;;;;;;;;;;;17.95;47.13;99380.69;10328967;28;1006;-76
2024/03/16 06:50:52;;;;;;;;;;;;;;;17.95;47.02;99407.03;10328812;28;977;-73
2024/03/16 06:55:49;;;;;;;;;;;;;;;17.94;47.10;99429.91;10329220;28;1958;-72
2024/03/16 07:00:45;;;;;;;;;;;;;;;17.96;46.90;99445.66;10329032;28;806;-72
2024/03/16 07:05:41;;;;;;;;;;;;;;;17.96;47.06;99466.75;10328213;28;846;-72
2024/03/16 07:10:36;;;;;;;;;;;;;;;17.97;47.00;99479.00;10328044;28;890;-74
2024/03/16 07:15:33;;;;;;;;;;;;;;;17.98;47.08;99498.34;10328351;28;1910;-72
2024/03/16 07:20:28;;;;;;;;;;;;;;;17.98;47.09;99509.72;10328598;28;836;-73
2024/03/16 07:25:25;;;;;;;;;;;;;;;17.98;47.07;99522.06;10328423;28;965;-73
2024/03/16 07:30:21;;;;;;;;;;;;;;;17.96;47.33;99541.44;10327304;28;1348;-73
2024/03/16 07:35:16;;;;;;;;;;;;;;;17.97;47.17;99552.84;10327618;28;1909;-72
2024/03/16 07:40:15;;;;;;;;;;;;;;;17.98;47.09;99574.81;10328432;28;818;-72
2024/03/16 07:45:12;;;;;;;;;;;;;;;17.98;47.25;99593.28;10325903;28;889;-72
2024/03/16 07:50:09;;;;;;;;;;;;;;;17.98;47.29;99595.91;10326098;28;993;-72
2024/03/16 07:55:06;;;;;;;;;;;;;;;17.98;47.14;99612.59;10326247;28;1897;-72
2024/03/16 08:00:02;;;;;;;;;;;;;;;17.99;47.24;99626.63;10326867;28;846;-73
2024/03/16 08:04:58;;;;;;;;;;;;;;;18.01;47.08;99640.59;10326116;28;877;-73
2024/03/16 08:09:54;;;;;;;;;;;;;;;18.01;47.13;99646.72;10325382;28;1600;-73
2024/03/16 08:14:50;;;;;;;;;;;;;;;18.02;47.36;99658.97;10325737;28;1977;-72
2024/03/16 08:19:46;;;;;;;;;;;;;;;18.04;47.29;99675.59;10326136;28;855;-73
2024/03/16 08:24:42;;;;;;;;;;;;;;;18.05;47.29;99682.59;10326272;28;942;-73
2024/03/16 08:29:38;;;;;;;;;;;;;;;18.07;47.19;99695.69;10326078;28;1093;-73
2024/03/16 08:34:34;;;;;;;;;;;;;;;18.08;47.36;99703.56;10325311;28;1913;-74
2024/03/16 08:39:31;;;;;;;;;;;;;;;18.08;47.26;99710.63;10325327;28;929;-73
2024/03/16 08:44:28;;;;;;;;;;;;;;;18.10;47.17;99720.16;10325384;28;886;-73
2024/03/16 08:49:24;;;;;;;;;;;;;;;18.12;47.30;99730.63;10325636;28;874;-72
2024/03/16 08:54:19;;;;;;;;;;;;;;;18.11;47.12;99734.22;10324365;28;1953;-76
2024/03/16 08:59:15;;;;;;;;;;;;;;;18.14;47.25;99737.56;10330206;28;928;-76
2024/03/16 09:04:12;;;;;;;;;;;;;;;18.14;47.13;99745.47;10332977;28;859;-76
2024/03/16 09:09:11;;;;;;;;;;;;;;;18.14;47.30;99753.38;10333395;28;937;-76
2024/03/16 09:14:07;;;;;;;;;;;;;;;18.14;47.32;99763.09;10332448;28;1893;-78
2024/03/16 09:19:03;;;;;;;;;;;;;;;18.16;47.15;99774.44;10333000;28;965;-75
2024/03/16 09:23:59;;;;;;;;;;;;;;;18.15;47.00;99797.28;10332232;28;771;-75
2024/03/16 09:28:55;;;;;;;;;;;;;;;18.15;47.25;99826.31;10331568;28;1286;-80
2024/03/16 09:33:51;;;;;;;;;;;;;;;18.16;47.05;99835.09;10331695;28;2349;-75
2024/03/16 09:38:47;;;;;;;;;;;;;;;18.17;47.00;99847.34;10332293;28;814;-75
2024/03/16 09:43:43;;;;;;;;;;;;;;;18.17;47.31;99858.75;10332016;28;887;-74
2024/03/16 09:48:39;;;;;;;;;;;;;;;18.19;47.28;99864.00;10331319;28;767;-76
2024/03/16 09:53:35;;;;;;;;;;;;;;;18.22;47.22;99884.09;10331998;28;1906;-74
2024/03/16 09:58:32;;;;;;;;;;;;;;;18.23;47.07;99877.88;10330940;28;775;-75
2024/03/16 10:03:28;;;;;;;;;;;;;;;18.25;47.03;99883.97;10330157;28;882;-71
2024/03/16 10:08:24;;;;;;;;;;;;;;;18.24;47.06;99882.25;10330153;28;924;-71
2024/03/16 10:13:19;;;;;;;;;;;;;;;18.23;46.99;99891.09;10329559;28;882;-71
2024/03/16 10:18:16;;;;;;;;;;;;;;;18.22;47.04;99890.22;10330855;28;1955;-71
2024/03/16 10:23:15;;;;;;;;;;;;;;;18.22;47.13;99897.28;10330149;28;855;-72
2024/03/16 10:28:15;;;;;;;;;;;;;;;18.20;46.96;99904.41;10330197;28;1217;-71
2024/03/16 10:33:11;;;;;;;;;;;;;;;18.21;46.92;99916.66;10329566;28;926;-71
2024/03/16 10:38:08;;;;;;;;;;;;;;;18.20;46.74;99923.72;10329128;28;1897;-71
2024/03/16 10:43:04;;;;;;;;;;;;;;;18.19;47.01;99932.59;10330767;28;1580;-71
2024/03/16 10:48:03;;;;;;;;;;;;;;;18.20;46.86;99944.00;10329179;28;798;-71
2024/03/16 10:53:00;;;;;;;;;;;;;;;18.18;46.73;99947.56;10328858;28;862;-70
2024/03/16 10:57:56;;;;;;;;;;;;;;;18.18;46.81;99960.75;10328441;28;1944;-71
2024/03/16 11:02:52;;;;;;;;;;;;;;;18.18;46.68;99975.69;10328470;28;924;-71
2024/03/16 11:07:48;;;;;;;;;;;;;;;18.17;46.86;99998.59;10328815;28;886;-70
2024/03/16 11:12:46;;;;;;;;;;;;;;;18.16;46.53;100007.44;10327516;28;929;-71
2024/03/16 11:17:42;;;;;;;;;;;;;;;18.17;46.55;100013.56;10328499;28;1898;-71
2024/03/16 11:22:38;;;;;;;;;;;;;;;18.16;46.59;100020.63;10326662;28;806;-71
2024/03/16 11:27:34;;;;;;;;;;;;;;;18.17;46.69;100035.53;10328064;28;869;-71
2024/03/16 11:32:30;;;;;;;;;;;;;;;18.16;46.68;100041.72;10328233;28;1388;-71
2024/03/16 11:37:25;;;;;;;;;;;;;;;18.17;46.52;100055.78;10326971;28;1977;-71
2024/03/16 11:42:21;;;;;;;;;;;;;;;18.17;46.42;100068.97;10326904;28;898;-71
2024/03/16 11:47:20;;;;;;;;;;;;;;;18.17;46.65;100071.59;10327270;28;873;-71
2024/03/16 11:52:16;;;;;;;;;;;;;;;18.16;46.43;100076.03;10327074;28;887;-71
2024/03/16 11:57:12;;;;;;;;;;;;;;;18.15;46.50;100071.66;10326265;28;1965;-71
2024/03/16 12:02:08;;;;;;;;;;;;;;;18.16;46.55;100064.63;10326268;28;893;-71
2024/03/16 12:07:03;;;;;;;;;;;;;;;18.16;46.49;100073.41;10326645;28;846;-71
2024/03/16 12:11:59;;;;;;;;;;;;;;;18.15;46.36;100078.72;10326513;28;885;-71
2024/03/16 12:16:55;;;;;;;;;;;;;;;18.15;46.41;100078.72;10325809;28;1894;-71
2024/03/16 12:21:51;;;;;;;;;;;;;;;18.15;46.59;100074.28;10325713;28;814;-71
2024/03/16 12:26:47;;;;;;;;;;;;;;;18.16;46.38;100091.88;10325508;28;810;-71
2024/03/16 12:31:43;;;;;;;;;;;;;;;18.14;46.30;100093.69;10324507;28;1429;-71
2024/03/16 12:36:39;;;;;;;;;;;;;;;18.14;46.30;100098.97;10325129;28;1914;-72
2024/03/16 12:41:35;;;;;;;;;;;;;;;18.14;46.17;100093.69;10326336;28;763;-72
2024/03/16 12:46:31;;;;;;;;;;;;;;;18.14;46.29;100095.47;10325691;28;1670;-71
2024/03/16 12:51:27;;;;;;;;;;;;;;;18.15;46.35;100102.47;10326006;28;908;-72
2024/03/16 12:56:23;;;;;;;;;;;;;;;18.17;46.17;100116.47;10324804;28;1959;-72
2024/03/16 13:01:23;;;;;;;;;;;;;;;18.18;46.16;100111.13;10325446;28;847;-74
2024/03/16 13:06:21;;;;;;;;;;;;;;;18.24;46.35;100115.31;10325356;28;877;-74
2024/03/16 13:11:17;;;;;;;;;;;;;;;18.25;46.50;100110.88;10324997;28;970;-74
2024/03/16 13:16:15;;;;;;;;;;;;;;;18.26;46.64;100105.56;10325356;28;1947;-74
2024/03/16 13:21:11;;;;;;;;;;;;;;;18.26;46.48;100116.13;10324905;28;815;-74
2024/03/16 13:26:07;;;;;;;;;;;;;;;18.26;46.54;100116.13;10324125;28;830;-74
2024/03/16 13:31:02;;;;;;;;;;;;;;;18.26;46.70;100117.88;10324519;28;1305;-73
2024/03/16 13:35:58;;;;;;;;;;;;;;;18.28;46.61;100127.44;10324054;28;1931;-74
2024/03/16 13:40:54;;;;;;;;;;;;;;;18.28;46.55;100129.22;10324510;28;774;-74
2024/03/16 13:45:50;;;;;;;;;;;;;;;18.29;46.60;100128.31;10326501;28;878;-74
2024/03/16 13:50:47;;;;;;;;;;;;;;;18.30;46.67;100135.31;10330973;28;895;-73
2024/03/16 13:55:43;;;;;;;;;;;;;;;18.33;46.51;100146.59;10331595;28;1890;-74
2024/03/16 14:00:39;;;;;;;;;;;;;;;18.37;46.74;100145.56;10330695;28;946;-74
2024/03/16 14:05:34;;;;;;;;;;;;;;;18.37;46.79;100145.56;10331087;28;894;-74
2024/03/16 14:10:30;;;;;;;;;;;;;;;18.38;46.74;100139.34;10330909;28;830;-74
2024/03/16 14:15:27;;;;;;;;;;;;;;;18.39;46.67;100150.75;10330038;28;1890;-74
2024/03/16 14:20:30;;;;;;;;;;;;;;;18.38;46.84;100149.91;10330987;28;906;-74
2024/03/16 14:25:26;;;;;;;;;;;;;;;18.38;46.77;100160.47;10330477;28;818;-74
2024/03/16 14:30:22;;;;;;;;;;;;;;;18.39;46.54;100162.22;10329885;28;1156;-75
2024/03/16 14:35:18;;;;;;;;;;;;;;;18.37;46.84;100166.69;10329251;28;1902;-74
2024/03/16 14:40:21;;;;;;;;;;;;;;;18.41;46.81;100172.69;10328607;28;684;-74
2024/03/16 14:45:17;;;;;;;;;;;;;;;18.40;46.88;100171.84;10329049;28;846;-73
2024/03/16 14:50:13;;;;;;;;;;;;;;;18.41;46.83;100183.25;10328824;28;838;-74
2024/03/16 14:55:09;;;;;;;;;;;;;;;18.40;46.73;100182.41;10328265;28;1885;-74
2024/03/16 15:00:08;;;;;;;;;;;;;;;18.41;46.85;100199.09;10328250;28;879;-73
2024/03/16 15:05:05;;;;;;;;;;;;;;;18.41;46.75;100191.16;10327585;28;851;-75
2024/03/16 15:10:01;;;;;;;;;;;;;;;18.39;46.83;100196.53;10325695;28;1120;-74
2024/03/16 15:14:57;;;;;;;;;;;;;;;18.41;46.82;100193.81;10327500;28;1956;-74
2024/03/16 15:19:53;;;;;;;;;;;;;;;18.43;46.74;100204.31;10327432;28;856;-75
2024/03/16 15:24:49;;;;;;;;;;;;;;;18.46;46.72;100202.41;10327078;28;806;-74
2024/03/16 15:29:45;;;;;;;;;;;;;;;18.46;46.81;100212.13;10326653;28;1081;-74
2024/03/16 15:34:41;;;;;;;;;;;;;;;18.45;46.95;100211.25;10326571;28;1913;-74
2024/03/16 15:39:37;;;;;;;;;;;;;;;18.45;46.73;100219.19;10326151;28;854;-75
2024/03/16 15:44:33;;;;;;;;;;;;;;;18.45;46.82;100224.47;10327169;28;842;-75
2024/03/16 15:49:29;;;;;;;;;;;;;;;18.46;46.82;100222.66;10326972;28;838;-74
2024/03/16 15:54:25;;;;;;;;;;;;;;;18.48;46.82;100226.97;10326909;28;1886;-74
2024/03/16 15:59:21;;;;;;;;;;;;;;;18.50;46.86;100233.06;10326041;28;864;-74
2024/03/16 16:04:17;;;;;;;;;;;;;;;18.50;46.75;100238.34;10325916;28;783;-78
2024/03/16 16:09:13;;;;;;;;;;;;;;;18.48;46.89;100240.16;10325844;28;848;-75
2024/03/16 16:14:09;;;;;;;;;;;;;;;18.48;46.85;100249.88;10325561;28;1890;-83
2024/03/16 16:19:05;;;;;;;;;;;;;;;18.48;46.81;100249.88;10325867;28;837;-75
2024/03/16 16:24:01;;;;;;;;;;;;;;;18.46;46.57;100254.34;10325695;28;955;-76
2024/03/16 16:28:57;;;;;;;;;;;;;;;18.46;47.04;100259.63;10325223;28;1209;-74
2024/03/16 16:33:53;;;;;;;;;;;;;;;18.45;46.82;100257.91;10326424;28;1914;-76
2024/03/16 16:38:49;;;;;;;;;;;;;;;18.42;46.79;100261.53;10325066;28;882;-80
2024/03/16 16:43:44;;;;;;;;;;;;;;;18.42;46.77;100260.66;10324973;28;823;-74
2024/03/16 16:48:41;;;;;;;;;;;;;;;18.40;46.74;100260.72;10325485;28;818;-75
2024/03/16 16:53:37;;;;;;;;;;;;;;;18.38;46.82;100254.63;10325104;28;750;-74
2024/03/16 16:58:33;;;;;;;;;;;;;;;18.37;46.87;100263.47;10325218;28;1957;-75
2024/03/16 17:03:29;;;;;;;;;;;;;;;18.39;46.87;100272.19;10324893;28;772;-74
2024/03/16 17:08:25;;;;;;;;;;;;;;;18.36;46.87;100261.75;10324532;28;787;-74
2024/03/16 17:13:21;;;;;;;;;;;;;;;18.35;46.77;100276.72;10325264;28;887;-73
2024/03/16 17:18:17;;;;;;;;;;;;;;;18.37;46.74;100279.31;10324884;28;1947;-74
2024/03/16 17:23:13;;;;;;;;;;;;;;;18.35;46.76;100297.84;10331667;28;866;-74
2024/03/16 17:28:09;;;;;;;;;;;;;;;18.36;46.74;100299.53;10331972;28;1019;-74
2024/03/16 17:33:06;;;;;;;;;;;;;;;18.36;46.97;100311.88;10331223;28;1302;-74
2024/03/16 17:38:10;;;;;;;;;;;;;;;18.35;46.92;100315.44;10332204;28;1922;-81
2024/03/16 17:43:05;;;;;;;;;;;;;;;18.37;46.74;100318.91;10331292;28;883;-74
2024/03/16 17:48:01;;;;;;;;;;;;;;;18.37;46.80;100326.81;10331712;28;838;-77
2024/03/16 17:52:57;;;;;;;;;;;;;;;18.37;46.96;100322.41;10330955;28;786;-74
2024/03/16 17:57:58;;;;;;;;;;;;;;;18.37;46.86;100316.25;10330175;28;1955;-74
2024/03/16 18:02:54;;;;;;;;;;;;;;;18.37;46.96;100322.41;10330556;28;894;-74
2024/03/16 18:07:50;;;;;;;;;;;;;;;18.38;46.86;100328.53;10330471;28;773;-75
2024/03/16 18:12:48;;;;;;;;;;;;;;;18.39;46.95;100331.13;10330221;28;910;-75
2024/03/16 18:17:44;;;;;;;;;;;;;;;18.39;46.89;100339.03;10330592;28;1969;-75
2024/03/16 18:22:41;;;;;;;;;;;;;;;18.39;46.80;100341.69;10331079;28;923;-74
2024/03/16 18:27:39;;;;;;;;;;;;;;;18.40;46.94;100347.81;10330628;28;841;-75
2024/03/16 18:32:34;;;;;;;;;;;;;;;18.41;46.86;100354.81;10328395;28;1149;-75
2024/03/16 18:37:30;;;;;;;;;;;;;;;18.41;46.78;100360.09;10329354;28;1975;-74
2024/03/16 18:42:26;;;;;;;;;;;;;;;18.41;47.10;100352.16;10329977;28;826;-74
2024/03/16 18:47:22;;;;;;;;;;;;;;;18.42;46.95;100361.84;10329769;28;794;-75
2024/03/16 18:52:18;;;;;;;;;;;;;;;18.44;47.16;100359.97;10328439;28;1051;-75
2024/03/16 18:57:18;;;;;;;;;;;;;;;18.44;46.73;100370.53;10328242;28;1890;-75
2024/03/16 19:02:14;;;;;;;;;;;;;;;18.44;46.80;100377.59;10328279;28;899;-75
2024/03/16 19:07:10;;;;;;;;;;;;;;;18.45;46.88;100393.38;10327544;28;1063;-75
2024/03/16 19:12:06;;;;;;;;;;;;;;;18.45;46.86;100392.53;10328766;28;862;-74
2024/03/16 19:17:02;;;;;;;;;;;;;;;18.44;46.83;100391.66;10328483;28;1961;-75
2024/03/16 19:21:58;;;;;;;;;;;;;;;18.46;46.86;100400.38;10328132;28;811;-75
2024/03/16 19:26:54;;;;;;;;;;;;;;;18.45;46.90;100396.03;10327899;28;853;-75
2024/03/16 19:31:51;;;;;;;;;;;;;;;18.45;46.77;100392.53;10326975;28;1361;-75
2024/03/16 19:36:47;;;;;;;;;;;;;;;18.47;46.56;100404.75;10327649;28;1902;-75
2024/03/16 19:41:43;;;;;;;;;;;;;;;18.46;46.81;100388.97;10325955;28;779;-75
2024/03/16 19:46:38;;;;;;;;;;;;;;;18.47;46.76;100404.75;10326608;28;755;-75
2024/03/16 19:51:35;;;;;;;;;;;;;;;18.47;46.84;100399.47;10309048;28;1641;-75
2024/03/16 19:56:30;;;;;;;;;;;;;;;18.48;46.81;100401.19;10326047;28;1989;-75
2024/03/16 20:01:26;;;;;;;;;;;;;;;18.48;46.75;100406.47;10326105;28;775;-74
2024/03/16 20:06:23;;;;;;;;;;;;;;;18.49;46.80;100407.31;10326695;28;1013;-75
2024/03/16 20:11:18;;;;;;;;;;;;;;;18.49;46.64;100410.81;10325146;28;1091;-75
2024/03/16 20:16:14;;;;;;;;;;;;;;;18.49;46.89;100404.69;10325573;28;1949;-75
2024/03/16 20:21:11;;;;;;;;;;;;;;;18.48;46.86;100406.47;10325518;28;797;-75
2024/03/16 20:26:07;;;;;;;;;;;;;;;18.50;46.90;100407.28;10325377;28;880;-75
2024/03/16 20:31:03;;;;;;;;;;;;;;;18.50;46.82;100409.06;10325517;28;1180;-75
2024/03/16 20:35:59;;;;;;;;;;;;;;;18.49;46.80;100408.19;10324588;28;1906;-75
2024/03/16 20:40:54;;;;;;;;;;;;;;;18.48;46.80;100411.75;10325784;28;848;-74
2024/03/16 20:45:51;;;;;;;;;;;;;;;18.48;46.81;100421.47;10325170;28;952;-75
2024/03/16 20:50:47;;;;;;;;;;;;;;;18.47;46.63;100411.78;10325602;28;862;-75
2024/03/16 20:55:43;;;;;;;;;;;;;;;18.46;46.71;100416.22;10329513;28;1951;-75
2024/03/16 21:00:39;;;;;;;;;;;;;;;18.46;46.64;100426.78;10333105;28;927;-75
2024/03/16 21:05:36;;;;;;;;;;;;;;;18.45;46.76;100424.22;10334163;28;984;-75
2024/03/16 21:10:32;;;;;;;;;;;;;;;18.45;46.66;100432.13;10333416;28;850;-75
2024/03/16 21:15:28;;;;;;;;;;;;;;;18.44;46.70;100430.38;10333087;28;1941;-75
2024/03/16 21:20:24;;;;;;;;;;;;;;;18.43;46.57;100432.16;10332280;28;810;-75
2024/03/16 21:25:19;;;;;;;;;;;;;;;18.43;46.73;100436.59;10332209;28;929;-75
2024/03/16 21:30:15;;;;;;;;;;;;;;;18.40;46.45;100441.06;10332464;28;1278;-74
2024/03/16 21:35:12;;;;;;;;;;;;;;;18.40;46.58;100437.56;10331647;28;1906;-75
2024/03/16 21:40:09;;;;;;;;;;;;;;;18.40;46.64;100434.91;10331365;28;887;-75
2024/03/16 21:45:05;;;;;;;;;;;;;;;18.39;46.53;100430.53;10331352;28;779;-75
2024/03/16 21:50:02;;;;;;;;;;;;;;;18.38;46.54;100434.97;10331712;28;846;-75
2024/03/16 21:54:57;;;;;;;;;;;;;;;18.36;46.49;100439.44;10330894;28;1957;-75
2024/03/16 21:59:53;;;;;;;;;;;;;;;18.36;46.57;100434.16;10331552;28;835;-75
2024/03/16 22:04:52;;;;;;;;;;;;;;;18.35;46.51;100439.50;10329623;28;949;-74
2024/03/16 22:09:48;;;;;;;;;;;;;;;18.34;46.59;100443.06;10330305;28;850;-75
2024/03/16 22:14:43;;;;;;;;;;;;;;;18.34;46.59;100451.84;10330203;28;1898;-74
2024/03/16 22:19:39;;;;;;;;;;;;;;;18.32;46.49;100456.28;10330073;28;814;-75
2024/03/16 22:24:35;;;;;;;;;;;;;;;18.30;46.50;100458.13;10330509;28;909;-75
2024/03/16 22:29:31;;;;;;;;;;;;;;;18.30;46.48;100459.91;10329418;28;1306;-75
2024/03/16 22:34:27;;;;;;;;;;;;;;;18.30;46.55;100459.91;10330636;28;1959;-75
2024/03/16 22:39:23;;;;;;;;;;;;;;;18.28;46.29;100456.44;10329245;28;876;-75
2024/03/16 22:44:19;;;;;;;;;;;;;;;18.26;46.38;100463.53;10329174;28;771;-75
2024/03/16 22:49:15;;;;;;;;;;;;;;;18.25;46.42;100465.31;10329509;28;914;-75
2024/03/16 22:54:10;;;;;;;;;;;;;;;18.24;46.42;100468.03;10328907;28;1944;-75
2024/03/16 22:59:06;;;;;;;;;;;;;;;18.23;46.49;100468.94;10329267;28;814;-75
2024/03/16 23:04:03;;;;;;;;;;;;;;;18.22;46.23;100465.44;10328934;28;1129;-75
2024/03/16 23:08:59;;;;;;;;;;;;;;;18.22;46.43;100475.13;10328274;28;854;-75
2024/03/16 23:13:55;;;;;;;;;;;;;;;18.20;46.49;100471.69;10328825;28;857;-75
2024/03/16 23:18:51;;;;;;;;;;;;;;;18.18;46.41;100467.31;10327859;28;1968;-75
2024/03/16 23:23:47;;;;;;;;;;;;;;;18.17;46.51;100468.22;10327124;28;1029;-75
2024/03/16 23:28:43;;;;;;;;;;;;;;;18.16;46.43;100469.16;10327488;28;1277;-75
2024/03/16 23:33:40;;;;;;;;;;;;;;;18.16;46.50;100471.78;10327389;28;899;-75
2024/03/16 23:38:36;;;;;;;;;;;;;;;18.15;46.22;100472.69;10326961;28;1917;-75
2024/03/16 23:43:32;;;;;;;;;;;;;;;18.14;46.27;100465.69;10326975;28;863;-75
2024/03/16 23:48:28;;;;;;;;;;;;;;;18.13;46.24;100466.63;10326802;28;989;-75
2024/03/16 23:53:24;;;;;;;;;;;;;;;18.13;46.26;100461.34;10327241;28;870;-75
2024/03/16 23:58:19;;;;;;;;;;;;;;;18.11;46.35;100452.59;10326465;28;1955;-75
